Time;durP1;ratioP1;P1;durP2;ratioP2;P2;SDS_P1;SDS_P2;PMS_P1;PMS_P2;Temp;Humidity;BMP_temperature;BMP_pressure;BME280_temperature;BME280_humidity;BME280_pressure;Samples;Min_cycle;Max_cycle;Signal;HPM_P1;HPM_P2
2022/04/01 00:00:08;;;;;;;36.85;8.50;;;;;;;;;;4918269;29;20055;-71
2022/04/01 00:02:38;;;;;;;35.05;7.15;;;;;;;;;;4918144;29;20040;-71
2022/04/01 00:05:05;;;;;;;41.67;8.55;;;;;;;;;;4917528;29;20035;-71
2022/04/01 00:07:36;;;;;;;32.53;7.68;;;;;;;;;;4917867;29;20037;-72
2022/04/01 00:10:03;;;;;;;39.67;7.82;;;;;;;;;;4917960;29;20044;-71
2022/04/01 00:12:29;;;;;;;32.10;7.95;;;;;;;;;;4917789;29;20028;-71
2022/04/01 00:14:55;;;;;;;30.27;7.15;;;;;;;;;;4920422;29;20036;-71
2022/04/01 00:17:21;;;;;;;44.83;8.20;;;;;;;;;;4918139;29;20131;-71
2022/04/01 00:19:47;;;;;;;31.08;7.30;;;;;;;;;;4917752;29;20037;-71
2022/04/01 00:22:13;;;;;;;34.58;7.32;;;;;;;;;;4917080;29;20027;-72
2022/04/01 00:24:39;;;;;;;43.50;7.88;;;;;;;;;;4916070;29;20041;-70
2022/04/01 00:27:04;;;;;;;35.88;7.88;;;;;;;;;;4916904;29;20212;-71
2022/04/01 00:29:30;;;;;;;30.35;6.70;;;;;;;;;;4917590;29;20056;-70
2022/04/01 00:32:00;;;;;;;30.05;7.20;;;;;;;;;;4917028;29;20091;-71
2022/04/01 00:34:30;;;;;;;41.72;7.28;;;;;;;;;;4913699;29;20491;-72
2022/04/01 00:36:58;;;;;;;31.88;7.18;;;;;;;;;;4917134;29;20066;-72
2022/04/01 00:39:25;;;;;;;30.10;6.75;;;;;;;;;;4917754;29;20419;-71
2022/04/01 00:41:52;;;;;;;42.75;7.82;;;;;;;;;;4917109;29;20064;-71
2022/04/01 00:44:26;;;;;;;29.00;6.60;;;;;;;;;;4917510;29;20083;-71
2022/04/01 00:46:55;;;;;;;41.70;7.20;;;;;;;;;;4918091;29;20124;-71
2022/04/01 00:49:23;;;;;;;30.83;8.18;;;;;;;;;;4917426;29;20126;-71
2022/04/01 00:51:51;;;;;;;31.52;7.80;;;;;;;;;;4917399;29;20036;-72
2022/04/01 00:54:18;;;;;;;25.15;6.97;;;;;;;;;;4917519;29;20028;-70
2022/04/01 00:56:45;;;;;;;31.92;6.95;;;;;;;;;;4916367;29;20511;-71
2022/04/01 00:59:11;;;;;;;50.78;7.70;;;;;;;;;;4916208;29;20485;-73
2022/04/01 01:01:39;;;;;;;38.33;7.72;;;;;;;;;;4916218;29;20136;-74
2022/04/01 01:04:08;;;;;;;30.75;6.63;;;;;;;;;;4917381;29;20427;-72
2022/04/01 01:06:39;;;;;;;35.25;8.10;;;;;;;;;;4930629;29;20051;-72
2022/04/01 01:09:06;;;;;;;42.55;7.68;;;;;;;;;;4935551;29;20032;-72
2022/04/01 01:11:32;;;;;;;32.58;6.72;;;;;;;;;;4936265;29;20023;-72
2022/04/01 01:13:59;;;;;;;54.22;8.48;;;;;;;;;;4935502;29;20039;-73
2022/04/01 01:16:25;;;;;;;34.42;7.32;;;;;;;;;;4935650;29;20032;-73
2022/04/01 01:19:07;;;;;;;33.22;7.13;;;;;;;;;;4935930;29;20394;-72
2022/04/01 01:21:33;;;;;;;38.13;8.02;;;;;;;;;;4935880;29;20070;-71
2022/04/01 01:24:07;;;;;;;26.95;6.60;;;;;;;;;;4937157;29;20028;-73
2022/04/01 01:26:36;;;;;;;37.22;6.90;;;;;;;;;;4936921;29;20160;-71
2022/04/01 01:29:04;;;;;;;32.85;7.15;;;;;;;;;;4935378;29;20182;-73
2022/04/01 01:31:30;;;;;;;29.95;7.47;;;;;;;;;;4936478;29;20119;-72
2022/04/01 01:33:58;;;;;;;35.75;7.78;;;;;;;;;;4936634;29;20486;-71
2022/04/01 01:36:25;;;;;;;38.58;7.45;;;;;;;;;;4936390;29;20036;-71
2022/04/01 01:38:52;;;;;;;25.40;7.55;;;;;;;;;;4935363;29;20035;-72
2022/04/01 01:41:20;;;;;;;31.80;8.30;;;;;;;;;;4935274;29;20130;-71
2022/04/01 01:43:46;;;;;;;40.33;8.45;;;;;;;;;;4935288;29;20115;-71
2022/04/01 01:46:13;;;;;;;34.75;7.55;;;;;;;;;;4936705;29;20368;-72
2022/04/01 01:48:39;;;;;;;39.60;8.45;;;;;;;;;;4935538;29;20467;-71
2022/04/01 01:56:35;;;;;;;30.63;7.28;;;;;;;;;;4914945;29;20063;-70
2022/04/01 01:59:04;;;;;;;52.55;9.27;;;;;;;;;;4916021;29;20035;-70
2022/04/01 02:01:30;;;;;;;32.33;8.60;;;;;;;;;;4915805;29;20032;-70
2022/04/01 02:03:56;;;;;;;53.35;8.20;;;;;;;;;;4915938;29;20442;-70
2022/04/01 02:06:22;;;;;;;50.35;8.65;;;;;;;;;;4917165;29;20071;-71
2022/04/01 02:08:50;;;;;;;51.55;9.73;;;;;;;;;;4915996;29;20032;-70
2022/04/01 02:11:17;;;;;;;43.47;8.98;;;;;;;;;;4919752;29;20052;-71
2022/04/01 02:13:45;;;;;;;53.65;11.18;;;;;;;;;;4919507;29;20479;-71
2022/04/01 02:16:13;;;;;;;37.17;9.98;;;;;;;;;;4908426;29;20047;-73
2022/04/01 02:18:42;;;;;;;43.30;8.52;;;;;;;;;;4914218;29;20032;-71
2022/04/01 02:21:11;;;;;;;40.80;8.63;;;;;;;;;;4914318;29;20048;-70
2022/04/01 02:23:41;;;;;;;54.20;8.38;;;;;;;;;;4915420;29;20471;-71
2022/04/01 02:26:10;;;;;;;40.42;10.02;;;;;;;;;;4914550;29;20048;-71
2022/04/01 02:28:37;;;;;;;33.88;8.55;;;;;;;;;;4915594;29;20488;-69
2022/04/01 02:31:05;;;;;;;38.22;8.32;;;;;;;;;;4914235;29;20506;-71
2022/04/01 02:33:49;;;;;;;31.95;9.02;;;;;;;;;;4915765;29;20035;-69
2022/04/01 02:36:15;;;;;;;63.70;10.23;;;;;;;;;;4906861;29;20033;-71
2022/04/01 02:38:42;;;;;;;66.22;10.20;;;;;;;;;;4907458;29;20029;-71
2022/04/01 02:41:11;;;;;;;65.40;10.65;;;;;;;;;;4895542;29;20047;-72
2022/04/01 02:43:39;;;;;;;60.78;10.93;;;;;;;;;;4884176;29;20402;-71
2022/04/01 02:46:05;;;;;;;60.70;11.60;;;;;;;;;;4915250;29;20083;-71
2022/04/01 02:48:35;;;;;;;80.65;12.27;;;;;;;;;;4911334;29;20033;-70
2022/04/01 02:51:27;;;;;;;68.05;11.45;;;;;;;;;;4892774;29;20299;-71
2022/04/01 02:53:59;;;;;;;53.20;9.55;;;;;;;;;;4906019;29;20059;-71
2022/04/01 02:56:24;;;;;;;53.88;9.80;;;;;;;;;;4929745;29;20039;-71
2022/04/01 02:58:51;;;;;;;60.35;10.80;;;;;;;;;;4913969;29;20055;-71
2022/04/01 03:01:20;;;;;;;41.08;9.20;;;;;;;;;;4914330;29;20498;-71
2022/04/01 03:03:46;;;;;;;40.28;8.23;;;;;;;;;;4914220;29;20123;-71
2022/04/01 03:06:16;;;;;;;41.00;9.10;;;;;;;;;;4915681;29;20048;-72
2022/04/01 03:08:43;;;;;;;52.25;10.73;;;;;;;;;;4917711;29;20036;-71
2022/04/01 03:11:09;;;;;;;48.60;9.57;;;;;;;;;;4917587;29;20043;-72
2022/04/01 03:13:37;;;;;;;47.35;9.57;;;;;;;;;;4915603;29;20044;-71
2022/04/01 03:16:28;;;;;;;31.95;8.90;;;;;;;;;;4918943;29;20042;-70
2022/04/01 03:18:59;;;;;;;30.52;8.52;;;;;;;;;;4917036;29;20128;-71
2022/04/01 03:21:26;;;;;;;72.25;11.43;;;;;;;;;;4917362;29;20047;-73
2022/04/01 03:23:53;;;;;;;119.75;14.35;;;;;;;;;;4917850;29;20483;-71
2022/04/01 03:26:23;;;;;;;79.65;11.25;;;;;;;;;;4917768;29;20048;-71
2022/04/01 03:29:06;;;;;;;44.55;9.75;;;;;;;;;;4918972;29;20411;-74
2022/04/01 03:31:34;;;;;;;42.10;8.43;;;;;;;;;;4917213;29;20115;-71
2022/04/01 03:34:03;;;;;;;31.92;9.57;;;;;;;;;;4917224;29;20028;-73
2022/04/01 03:36:30;;;;;;;46.60;8.90;;;;;;;;;;4901750;29;20044;-73
2022/04/01 03:38:56;;;;;;;33.97;8.25;;;;;;;;;;4917449;29;20123;-71
2022/04/01 03:41:30;;;;;;;62.45;10.80;;;;;;;;;;4917473;29;20044;-72
2022/04/01 03:44:00;;;;;;;50.65;10.00;;;;;;;;;;4917416;29;20455;-71
2022/04/01 03:46:42;;;;;;;33.65;8.63;;;;;;;;;;4915222;29;20174;-73
2022/04/01 03:49:13;;;;;;;36.17;8.20;;;;;;;;;;4930628;29;20036;-74
2022/04/01 03:51:39;;;;;;;34.40;7.70;;;;;;;;;;4916581;29;20135;-72
2022/04/01 03:54:05;;;;;;;60.60;9.70;;;;;;;;;;4914801;29;20115;-72
2022/04/01 03:57:02;;;;;;;48.67;9.77;;;;;;;;;;4901704;29;20128;-71
2022/04/01 03:59:50;;;;;;;37.45;8.57;;;;;;;;;;4898354;29;20396;-73
2022/04/01 04:02:35;;;;;;;86.05;12.50;;;;;;;;;;4899518;29;20093;-70
2022/04/01 04:05:03;;;;;;;67.10;11.65;;;;;;;;;;4897665;29;20092;-73
2022/04/01 04:07:33;;;;;;;50.00;11.52;;;;;;;;;;4915028;29;20138;-71
2022/04/01 04:10:07;;;;;;;74.45;14.23;;;;;;;;;;4920574;29;20043;-72
2022/04/01 04:12:42;;;;;;;87.85;13.27;;;;;;;;;;4917450;29;20131;-73
2022/04/01 04:15:09;;;;;;;52.63;10.77;;;;;;;;;;4916485;29;20047;-70
2022/04/01 04:17:39;;;;;;;70.47;13.23;;;;;;;;;;4916337;29;20084;-71
2022/04/01 04:20:28;;;;;;;64.03;12.88;;;;;;;;;;4916598;29;20051;-71
2022/04/01 04:23:10;;;;;;;88.22;12.98;;;;;;;;;;4917057;29;20040;-73
2022/04/01 04:25:38;;;;;;;55.92;10.68;;;;;;;;;;4917787;29;20036;-72
2022/04/01 04:28:14;;;;;;;97.80;15.32;;;;;;;;;;4915908;29;20402;-71
2022/04/01 04:30:49;;;;;;;113.88;15.82;;;;;;;;;;4915243;29;20502;-71
2022/04/01 04:33:44;;;;;;;79.75;14.00;;;;;;;;;;4915182;29;20047;-72
2022/04/01 04:36:15;;;;;;;67.10;12.57;;;;;;;;;;4914168;29;20084;-72
2022/04/01 04:38:55;;;;;;;49.55;10.85;;;;;;;;;;4915429;29;20036;-72
2022/04/01 04:41:23;;;;;;;50.20;11.38;;;;;;;;;;4915015;29;20479;-72
2022/04/01 04:44:01;;;;;;;70.53;12.32;;;;;;;;;;4917444;29;20056;-71
2022/04/01 04:46:27;;;;;;;83.97;14.45;;;;;;;;;;4915677;29;20040;-71
2022/04/01 04:48:57;;;;;;;146.98;18.33;;;;;;;;;;4915215;29;20487;-73
2022/04/01 04:51:30;;;;;;;155.27;19.90;;;;;;;;;;4915264;29;20044;-72
2022/04/01 04:54:14;;;;;;;91.15;16.67;;;;;;;;;;4915227;29;20048;-71
2022/04/01 04:56:49;;;;;;;67.88;16.48;;;;;;;;;;4915571;29;20056;-70
2022/04/01 04:59:20;;;;;;;109.90;17.63;;;;;;;;;;4915280;29;20124;-73
2022/04/01 05:01:56;;;;;;;120.75;19.20;;;;;;;;;;4915181;29;20135;-72
2022/04/01 05:04:25;;;;;;;162.63;20.63;;;;;;;;;;4915455;29;20162;-72
2022/04/01 05:07:10;;;;;;;140.05;18.75;;;;;;;;;;4915764;29;20028;-73
2022/04/01 05:10:09;;;;;;;118.93;16.10;;;;;;;;;;4916752;29;20119;-72
2022/04/01 05:12:43;;;;;;;135.45;17.52;;;;;;;;;;4914965;29;20044;-71
2022/04/01 05:15:11;;;;;;;124.57;19.05;;;;;;;;;;4916472;29;20072;-71
2022/04/01 05:18:02;;;;;;;104.88;16.88;;;;;;;;;;4915108;29;20123;-73
2022/04/01 05:20:33;;;;;;;92.13;16.60;;;;;;;;;;4915276;29;20040;-73
2022/04/01 05:23:09;;;;;;;69.97;16.33;;;;;;;;;;4914917;29;20336;-72
2022/04/01 05:25:54;;;;;;;88.68;18.10;;;;;;;;;;4914951;29;20046;-70
2022/04/01 05:28:48;;;;;;;52.17;14.98;;;;;;;;;;4863186;29;1550206;-71
2022/04/01 05:31:37;;;;;;;53.47;14.20;;;;;;;;;;4915197;29;20131;-71
2022/04/01 05:34:09;;;;;;;39.13;12.57;;;;;;;;;;4915987;29;20040;-71
2022/04/01 05:36:37;;;;;;;86.87;16.87;;;;;;;;;;4916055;29;20032;-74
2022/04/01 05:39:04;;;;;;;79.15;14.88;;;;;;;;;;4915120;29;20039;-71
2022/04/01 05:41:31;;;;;;;95.55;15.52;;;;;;;;;;4915705;29;20559;-73
2022/04/01 05:43:57;;;;;;;46.22;10.77;;;;;;;;;;4916301;29;20059;-72
2022/04/01 05:46:39;;;;;;;104.25;13.95;;;;;;;;;;4919044;29;20036;-73
2022/04/01 05:49:08;;;;;;;68.43;12.75;;;;;;;;;;4912706;29;20505;-73
2022/04/01 05:51:34;;;;;;;91.65;13.20;;;;;;;;;;4896529;29;20032;-73
2022/04/01 05:54:01;;;;;;;100.32;15.30;;;;;;;;;;4896663;29;20047;-73
2022/04/01 05:56:28;;;;;;;117.25;16.73;;;;;;;;;;4908784;29;20024;-72
2022/04/01 05:58:54;;;;;;;68.82;11.88;;;;;;;;;;4904755;29;20051;-73
2022/04/01 06:01:45;;;;;;;94.70;14.77;;;;;;;;;;4900336;29;20039;-74
2022/04/01 06:04:35;;;;;;;106.20;15.73;;;;;;;;;;4896857;29;20088;-72
2022/04/01 06:07:15;;;;;;;90.40;13.82;;;;;;;;;;4881479;29;20039;-72
2022/04/01 06:10:00;;;;;;;97.82;14.35;;;;;;;;;;4915973;29;20032;-72
2022/04/01 06:13:23;;;;;;;58.88;11.85;;;;;;;;;;4914397;29;20221;-73
2022/04/01 06:16:16;;;;;;;78.32;12.60;;;;;;;;;;4900462;29;20100;-73
2022/04/01 06:19:21;;;;;;;78.55;13.25;;;;;;;;;;4898714;29;20090;-74
2022/04/01 06:22:03;;;;;;;46.75;12.15;;;;;;;;;;4895526;29;20041;-73
2022/04/01 06:24:59;;;;;;;51.63;11.05;;;;;;;;;;4911095;29;20491;-74
2022/04/01 06:27:34;;;;;;;64.10;12.63;;;;;;;;;;4895765;29;20045;-74
2022/04/01 06:30:03;;;;;;;75.90;13.63;;;;;;;;;;4911928;29;20037;-75
2022/04/01 06:32:35;;;;;;;72.45;12.77;;;;;;;;;;4913076;29;20131;-74
2022/04/01 06:35:43;;;;;;;55.17;11.13;;;;;;;;;;4915104;29;20099;-77
2022/04/01 06:38:37;;;;;;;45.20;9.35;;;;;;;;;;4853808;29;20105;-74
2022/04/01 06:41:09;;;;;;;35.35;8.93;;;;;;;;;;4913943;29;20127;-74
2022/04/01 06:43:52;;;;;;;42.30;8.73;;;;;;;;;;4913829;29;20099;-74
2022/04/01 06:46:38;;;;;;;43.72;10.55;;;;;;;;;;4910836;29;20048;-75
2022/04/01 06:49:15;;;;;;;44.70;8.90;;;;;;;;;;4895133;29;20080;-75
2022/04/01 06:51:46;;;;;;;32.88;7.10;;;;;;;;;;4895931;29;20052;-75
2022/04/01 06:54:30;;;;;;;40.10;7.97;;;;;;;;;;4900269;29;20118;-74
2022/04/01 06:57:15;;;;;;;37.03;7.75;;;;;;;;;;4908155;29;20136;-74
2022/04/01 07:00:11;;;;;;;44.63;8.38;;;;;;;;;;4900254;29;20091;-73
2022/04/01 07:02:37;;;;;;;56.63;9.88;;;;;;;;;;4912674;29;20028;-73
2022/04/01 07:05:05;;;;;;;38.50;7.85;;;;;;;;;;4915415;29;20096;-74
2022/04/01 07:07:31;;;;;;;42.08;9.20;;;;;;;;;;4915044;29;20075;-75
2022/04/01 07:09:57;;;;;;;68.30;10.40;;;;;;;;;;4909468;29;20032;-74
2022/04/01 07:12:23;;;;;;;40.63;8.85;;;;;;;;;;4915176;29;20036;-76
2022/04/01 07:14:50;;;;;;;38.80;8.40;;;;;;;;;;4912218;29;20036;-74
2022/04/01 07:17:16;;;;;;;47.25;8.38;;;;;;;;;;4913291;29;20075;-72
2022/04/01 07:19:42;;;;;;;36.88;9.18;;;;;;;;;;4911015;29;20044;-73
2022/04/01 07:22:08;;;;;;;38.80;8.57;;;;;;;;;;4909376;29;20095;-74
2022/04/01 07:24:34;;;;;;;41.03;8.88;;;;;;;;;;4909522;29;20067;-73
2022/04/01 07:27:00;;;;;;;56.55;9.15;;;;;;;;;;4913647;29;20044;-74
2022/04/01 07:29:27;;;;;;;40.15;8.20;;;;;;;;;;4913049;29;20051;-73
2022/04/01 07:34:43;;;;;;;52.58;9.23;;;;;;;;;;4913966;29;20087;-75
2022/04/01 07:37:10;;;;;;;57.85;10.10;;;;;;;;;;4913910;29;20103;-76
2022/04/01 07:39:37;;;;;;;46.92;8.60;;;;;;;;;;4915729;29;20408;-76
2022/04/01 07:42:03;;;;;;;46.58;9.60;;;;;;;;;;4914895;29;20024;-75
2022/04/01 07:44:30;;;;;;;30.40;7.20;;;;;;;;;;4914772;29;20092;-76
2022/04/01 07:46:56;;;;;;;47.00;9.57;;;;;;;;;;4913697;29;20643;-77
2022/04/01 07:49:22;;;;;;;44.28;8.13;;;;;;;;;;4914591;29;20499;-75
2022/04/01 07:51:48;;;;;;;70.05;11.35;;;;;;;;;;4914957;29;20032;-74
2022/04/01 07:54:15;;;;;;;42.72;9.20;;;;;;;;;;4917738;29;20048;-72
2022/04/01 07:56:42;;;;;;;43.15;9.65;;;;;;;;;;4918181;29;20028;-73
2022/04/01 07:59:15;;;;;;;52.10;10.23;;;;;;;;;;4916763;29;20028;-74
2022/04/01 08:01:41;;;;;;;45.33;8.73;;;;;;;;;;4918415;29;20044;-77
2022/04/01 08:04:07;;;;;;;46.78;9.07;;;;;;;;;;4918208;29;20035;-75
2022/04/01 08:06:33;;;;;;;40.35;8.45;;;;;;;;;;4917720;29;20107;-75
2022/04/01 08:08:59;;;;;;;35.88;8.73;;;;;;;;;;4918202;29;20480;-73
2022/04/01 08:11:26;;;;;;;52.65;9.85;;;;;;;;;;4918826;29;20036;-74
2022/04/01 08:13:53;;;;;;;30.95;8.50;;;;;;;;;;4918646;29;20456;-75
2022/04/01 08:16:18;;;;;;;52.92;9.40;;;;;;;;;;4917937;29;20024;-75
2022/04/01 08:18:44;;;;;;;42.00;9.85;;;;;;;;;;4910104;29;20052;-73
2022/04/01 08:21:10;;;;;;;46.63;9.20;;;;;;;;;;4916829;29;20113;-74
2022/04/01 08:23:37;;;;;;;43.95;9.50;;;;;;;;;;4913800;29;20159;-75
2022/04/01 08:26:04;;;;;;;52.70;10.02;;;;;;;;;;4916196;29;20032;-75
2022/04/01 08:28:30;;;;;;;41.13;8.70;;;;;;;;;;4914193;29;20506;-75
2022/04/01 08:30:56;;;;;;;41.97;8.43;;;;;;;;;;4906150;29;20037;-72
2022/04/01 08:33:22;;;;;;;43.15;8.98;;;;;;;;;;4899446;29;20029;-73
2022/04/01 08:35:48;;;;;;;41.42;8.38;;;;;;;;;;4899089;29;20084;-76
2022/04/01 08:38:14;;;;;;;41.80;9.10;;;;;;;;;;4898958;29;20358;-75
2022/04/01 08:40:40;;;;;;;49.15;9.40;;;;;;;;;;4898906;29;20049;-75
2022/04/01 08:43:06;;;;;;;57.22;9.75;;;;;;;;;;4898110;29;20028;-74
2022/04/01 08:45:34;;;;;;;79.20;13.25;;;;;;;;;;4917144;29;20036;-72
2022/04/01 08:48:00;;;;;;;53.63;10.55;;;;;;;;;;4915588;29;20028;-77
2022/04/01 08:50:26;;;;;;;47.58;10.45;;;;;;;;;;4917461;29;20072;-73
2022/04/01 08:52:53;;;;;;;43.80;10.35;;;;;;;;;;4916996;29;20114;-71
2022/04/01 08:55:19;;;;;;;45.42;9.98;;;;;;;;;;4916151;29;20036;-73
2022/04/01 08:57:45;;;;;;;60.05;10.82;;;;;;;;;;4916969;29;20135;-76
2022/04/01 09:00:14;;;;;;;50.35;9.57;;;;;;;;;;4917030;29;20068;-74
2022/04/01 09:02:44;;;;;;;45.70;10.05;;;;;;;;;;4916343;29;20028;-73
2022/04/01 09:05:13;;;;;;;48.90;10.93;;;;;;;;;;4916437;29;20040;-74
2022/04/01 09:07:38;;;;;;;51.38;9.68;;;;;;;;;;4916894;29;20031;-72
2022/04/01 09:10:07;;;;;;;52.30;9.88;;;;;;;;;;4916916;29;20032;-73
2022/04/01 09:12:34;;;;;;;52.70;9.30;;;;;;;;;;4917092;29;20446;-73
2022/04/01 09:15:02;;;;;;;60.50;11.07;;;;;;;;;;4916242;29;20040;-76
2022/04/01 09:17:42;;;;;;;65.00;11.23;;;;;;;;;;4913773;29;20020;-72
2022/04/01 09:20:09;;;;;;;50.58;9.43;;;;;;;;;;4914943;29;20044;-74
2022/04/01 09:22:36;;;;;;;40.10;9.63;;;;;;;;;;4914902;29;20031;-73
2022/04/01 09:25:06;;;;;;;50.50;9.25;;;;;;;;;;4915425;29;20088;-73
2022/04/01 09:27:45;;;;;;;44.17;8.70;;;;;;;;;;4908753;29;20396;-74
2022/04/01 09:30:20;;;;;;;58.25;10.02;;;;;;;;;;4915980;29;20505;-74
2022/04/01 09:32:51;;;;;;;52.88;9.48;;;;;;;;;;4916448;29;20050;-75
2022/04/01 09:35:22;;;;;;;57.03;11.15;;;;;;;;;;4916907;29;20044;-72
2022/04/01 09:37:50;;;;;;;55.50;10.63;;;;;;;;;;4915724;29;20395;-72
2022/04/01 09:40:19;;;;;;;58.03;11.70;;;;;;;;;;4916772;29;20029;-73
2022/04/01 09:42:52;;;;;;;52.55;10.00;;;;;;;;;;4912518;29;20067;-74
2022/04/01 09:45:20;;;;;;;47.05;9.95;;;;;;;;;;4914680;29;20044;-74
2022/04/01 09:48:07;;;;;;;53.25;11.10;;;;;;;;;;4914704;29;20032;-74
2022/04/01 09:50:42;;;;;;;60.30;9.68;;;;;;;;;;4916733;29;20058;-73
2022/04/01 09:53:14;;;;;;;53.90;10.05;;;;;;;;;;4913846;29;20039;-77
2022/04/01 09:55:43;;;;;;;50.75;9.80;;;;;;;;;;4916879;29;20382;-74
2022/04/01 09:58:09;;;;;;;59.05;9.32;;;;;;;;;;4916094;29;20032;-74
2022/04/01 10:00:37;;;;;;;43.45;10.35;;;;;;;;;;4918059;29;20539;-74
2022/04/01 10:03:04;;;;;;;57.22;11.13;;;;;;;;;;4916775;29;20107;-74
2022/04/01 10:05:31;;;;;;;55.47;11.43;;;;;;;;;;4916336;29;20040;-73
2022/04/01 10:07:57;;;;;;;51.03;9.60;;;;;;;;;;4916746;29;20067;-74
2022/04/01 10:10:25;;;;;;;58.55;11.65;;;;;;;;;;4916074;29;20028;-74
2022/04/01 10:12:53;;;;;;;114.22;14.15;;;;;;;;;;4916318;29;20020;-74
2022/04/01 10:15:19;;;;;;;49.58;9.68;;;;;;;;;;4915080;29;20047;-75
2022/04/01 10:17:45;;;;;;;51.28;9.68;;;;;;;;;;4916279;29;20487;-74
2022/04/01 10:20:16;;;;;;;51.15;10.43;;;;;;;;;;4914926;29;20485;-75
2022/04/01 10:22:42;;;;;;;57.20;10.63;;;;;;;;;;4915831;29;20156;-72
2022/04/01 10:25:16;;;;;;;60.67;10.18;;;;;;;;;;4917472;29;20138;-75
2022/04/01 10:27:53;;;;;;;39.30;8.85;;;;;;;;;;4916555;29;20032;-73
2022/04/01 10:30:23;;;;;;;46.03;7.65;;;;;;;;;;4916666;29;20451;-74
2022/04/01 10:32:49;;;;;;;39.22;6.55;;;;;;;;;;4915770;29;20040;-74
2022/04/01 10:35:30;;;;;;;45.10;8.25;;;;;;;;;;4915898;29;20490;-73
2022/04/01 10:38:16;;;;;;;45.47;7.05;;;;;;;;;;4915954;29;20032;-74
2022/04/01 10:40:49;;;;;;;43.25;7.82;;;;;;;;;;4915993;29;20371;-74
2022/04/01 10:43:19;;;;;;;38.17;8.05;;;;;;;;;;4916149;29;20047;-72
2022/04/01 10:46:07;;;;;;;37.90;7.70;;;;;;;;;;4916020;29;20029;-72
2022/04/01 10:51:39;;;;;;;36.72;7.72;;;;;;;;;;4915705;29;20200;-74
2022/04/01 10:54:14;;;;;;;64.85;9.00;;;;;;;;;;4915313;29;20051;-71
2022/04/01 10:56:41;;;;;;;45.10;9.00;;;;;;;;;;4914124;29;20036;-73
2022/04/01 10:59:19;;;;;;;52.08;10.10;;;;;;;;;;4915789;29;20467;-73
2022/04/01 11:01:54;;;;;;;43.45;7.75;;;;;;;;;;4915642;29;20091;-74
2022/04/01 11:04:21;;;;;;;38.15;6.72;;;;;;;;;;4916401;29;20040;-73
2022/04/01 11:07:10;;;;;;;60.55;7.30;;;;;;;;;;4914708;29;20036;-72
2022/04/01 11:09:45;;;;;;;46.88;6.80;;;;;;;;;;4915826;29;20037;-71
2022/04/01 11:12:19;;;;;;;40.83;6.80;;;;;;;;;;4915836;29;20107;-73
2022/04/01 11:14:57;;;;;;;45.28;7.18;;;;;;;;;;4915739;29;20064;-73
2022/04/01 11:17:26;;;;;;;38.65;5.97;;;;;;;;;;4915903;29;20083;-74
2022/04/01 11:20:19;;;;;;;41.88;5.82;;;;;;;;;;4914607;29;20056;-73
2022/04/01 11:22:54;;;;;;;33.10;6.07;;;;;;;;;;4916106;29;20055;-71
2022/04/01 11:25:27;;;;;;;39.50;6.55;;;;;;;;;;4916193;29;20491;-75
2022/04/01 11:28:11;;;;;;;32.50;5.25;;;;;;;;;;4919223;29;20052;-72
2022/04/01 11:30:40;;;;;;;;;;;;;;;;;;4919870;29;20115;-71
2022/04/01 11:33:14;;;;;;;32.05;6.22;;;;;;;;;;4919365;29;19962;-71
2022/04/01 11:35:44;;;;;;;43.42;6.95;;;;;;;;;;4918668;29;20042;-73
2022/04/01 11:38:13;;;;;;;32.95;6.72;;;;;;;;;;4918702;29;20103;-74
2022/04/01 11:40:40;;;;;;;39.55;6.38;;;;;;;;;;4918933;29;20036;-75
2022/04/01 11:43:09;;;;;;;30.67;5.90;;;;;;;;;;4918750;29;20040;-74
2022/04/01 11:45:44;;;;;;;32.50;5.65;;;;;;;;;;4918886;29;20036;-72
2022/04/01 11:48:21;;;;;;;43.67;6.45;;;;;;;;;;4919210;29;20032;-73
2022/04/01 11:50:49;;;;;;;39.75;7.53;;;;;;;;;;4919053;29;20379;-72
2022/04/01 11:53:32;;;;;;;38.15;5.88;;;;;;;;;;4920241;29;20060;-73
2022/04/01 11:55:59;;;;;;;33.15;5.80;;;;;;;;;;4918937;29;20036;-74
2022/04/01 11:58:26;;;;;;;32.72;5.78;;;;;;;;;;4918473;29;20483;-76
2022/04/01 12:00:53;;;;;;;31.43;6.30;;;;;;;;;;4918453;29;20068;-73
2022/04/01 12:03:19;;;;;;;37.13;5.53;;;;;;;;;;4918753;29;20031;-73
2022/04/01 12:05:46;;;;;;;30.85;6.25;;;;;;;;;;4918228;29;20043;-75
2022/04/01 12:10:58;;;;;;;42.42;6.95;;;;;;;;;;4918782;29;20087;-74
2022/04/01 12:13:26;;;;;;;23.35;5.20;;;;;;;;;;4918602;29;20043;-73
2022/04/01 12:15:53;;;;;;;33.35;6.40;;;;;;;;;;4918340;29;20036;-73
2022/04/01 12:18:22;;;;;;;33.58;4.75;;;;;;;;;;4918357;29;20499;-73
2022/04/01 12:20:50;;;;;;;32.72;4.95;;;;;;;;;;4918102;29;20055;-72
2022/04/01 12:23:19;;;;;;;30.20;5.32;;;;;;;;;;4901464;29;20120;-75
2022/04/01 12:25:48;;;;;;;21.75;4.78;;;;;;;;;;4918285;29;20032;-72
2022/04/01 12:28:16;;;;;;;31.63;7.10;;;;;;;;;;4918493;29;20052;-73
2022/04/01 12:30:55;;;;;;;26.02;4.75;;;;;;;;;;4918655;29;20032;-74
2022/04/01 12:33:28;;;;;;;24.25;4.72;;;;;;;;;;4918257;29;20123;-75
2022/04/01 12:35:57;;;;;;;;;;;;;;;;;;4918610;29;20028;-73
2022/04/01 12:38:26;;;;;;;21.58;4.00;;;;;;;;;;4918188;29;19919;-74
2022/04/01 12:40:58;;;;;;;17.48;3.78;;;;;;;;;;4918243;29;20122;-73
2022/04/01 12:43:38;;;;;;;23.77;4.50;;;;;;;;;;4918054;29;20040;-75
2022/04/01 12:46:08;;;;;;;18.90;3.88;;;;;;;;;;4918308;29;20574;-71
2022/04/01 12:48:49;;;;;;;19.55;4.03;;;;;;;;;;4918277;29;20036;-72
2022/04/01 12:51:29;;;;;;;20.83;3.90;;;;;;;;;;4917876;29;20068;-74
2022/04/01 12:54:20;;;;;;;25.92;4.78;;;;;;;;;;4918052;29;20036;-74
2022/04/01 12:56:50;;;;;;;24.30;4.68;;;;;;;;;;4914874;29;20051;-71
2022/04/01 12:59:18;;;;;;;24.60;4.70;;;;;;;;;;4917689;29;20075;-72
2022/04/01 13:01:55;;;;;;;33.38;4.80;;;;;;;;;;4917606;29;20028;-74
2022/04/01 13:04:21;;;;;;;35.13;4.75;;;;;;;;;;4917442;29;20047;-73
2022/04/01 13:07:07;;;;;;;30.35;4.28;;;;;;;;;;4917502;29;20020;-73
2022/04/01 13:09:46;;;;;;;26.08;4.90;;;;;;;;;;4917412;29;20044;-73
2022/04/01 13:12:12;;;;;;;18.63;4.63;;;;;;;;;;4917473;29;20115;-73
2022/04/01 13:14:38;;;;;;;25.10;4.85;;;;;;;;;;4917479;29;20049;-71
2022/04/01 13:17:15;;;;;;;27.98;4.55;;;;;;;;;;4917203;29;20498;-73
2022/04/01 13:19:45;;;;;;;22.83;3.95;;;;;;;;;;4917413;29;20550;-72
2022/04/01 13:22:12;;;;;;;23.98;3.60;;;;;;;;;;4917629;29;20032;-72
2022/04/01 13:24:43;;;;;;;24.88;3.92;;;;;;;;;;4913320;29;20032;-74
2022/04/01 13:27:13;;;;;;;17.15;2.90;;;;;;;;;;4915356;29;20032;-72
2022/04/01 13:29:39;;;;;;;22.40;3.72;;;;;;;;;;4914534;29;20104;-72
2022/04/01 13:32:06;;;;;;;18.38;3.42;;;;;;;;;;4916941;29;20444;-75
2022/04/01 13:34:33;;;;;;;17.65;3.28;;;;;;;;;;4915930;29;20072;-73
2022/04/01 13:36:59;;;;;;;20.83;3.80;;;;;;;;;;4916214;29;20055;-72
2022/04/01 13:39:26;;;;;;;18.92;3.60;;;;;;;;;;4915876;29;20135;-73
2022/04/01 13:41:52;;;;;;;16.30;3.70;;;;;;;;;;4915788;29;20130;-73
2022/04/01 13:44:19;;;;;;;20.15;3.05;;;;;;;;;;4916952;29;20058;-73
2022/04/01 13:46:45;;;;;;;22.40;4.22;;;;;;;;;;4915738;29;20448;-74
2022/04/01 13:49:13;;;;;;;20.00;3.67;;;;;;;;;;4917335;29;20036;-73
2022/04/01 13:51:41;;;;;;;26.13;4.40;;;;;;;;;;4917584;29;20024;-76
2022/04/01 13:54:08;;;;;;;16.65;3.80;;;;;;;;;;4933409;29;20044;-75
2022/04/01 13:56:36;;;;;;;17.55;4.13;;;;;;;;;;4918582;29;20028;-74
2022/04/01 13:59:02;;;;;;;15.98;3.35;;;;;;;;;;4916667;29;20034;-75
2022/04/01 14:01:27;;;;;;;18.13;3.58;;;;;;;;;;4916552;29;20091;-75
2022/04/01 14:03:54;;;;;;;13.20;3.13;;;;;;;;;;4917470;29;20154;-75
2022/04/01 14:06:23;;;;;;;20.30;3.75;;;;;;;;;;4917380;29;20024;-73
2022/04/01 14:08:49;;;;;;;18.65;3.95;;;;;;;;;;4918509;29;20510;-72
2022/04/01 14:11:15;;;;;;;24.92;4.13;;;;;;;;;;4917603;29;20055;-73
2022/04/01 14:13:41;;;;;;;24.33;3.75;;;;;;;;;;4916713;29;20075;-75
2022/04/01 14:16:07;;;;;;;20.23;3.30;;;;;;;;;;4916418;29;20080;-74
2022/04/01 14:18:33;;;;;;;18.40;3.45;;;;;;;;;;4916467;29;20036;-74
2022/04/01 14:21:00;;;;;;;23.35;4.00;;;;;;;;;;4916460;29;20523;-73
2022/04/01 14:23:31;;;;;;;20.85;3.75;;;;;;;;;;4916829;29;20040;-74
2022/04/01 14:26:08;;;;;;;21.27;4.25;;;;;;;;;;4916448;29;20115;-74
2022/04/01 14:28:39;;;;;;;16.67;4.20;;;;;;;;;;4916027;29;20050;-74
2022/04/01 14:31:06;;;;;;;22.80;3.47;;;;;;;;;;4914924;29;20040;-74
2022/04/01 14:33:32;;;;;;;25.65;3.53;;;;;;;;;;4912533;29;20395;-74
2022/04/01 14:35:59;;;;;;;20.83;3.38;;;;;;;;;;4914370;29;20037;-74
2022/04/01 14:38:25;;;;;;;21.75;4.22;;;;;;;;;;4916001;29;20024;-75
2022/04/01 14:40:52;;;;;;;24.90;3.70;;;;;;;;;;4916330;29;20171;-75
2022/04/01 14:43:18;;;;;;;21.83;3.65;;;;;;;;;;4915045;29;20024;-73
2022/04/01 14:45:45;;;;;;;16.45;3.80;;;;;;;;;;4914989;29;20539;-77
2022/04/01 14:48:11;;;;;;;15.80;3.22;;;;;;;;;;4915328;29;20039;-73
2022/04/01 14:50:37;;;;;;;24.27;3.78;;;;;;;;;;4916134;29;20044;-73
2022/04/01 14:53:05;;;;;;;16.02;3.22;;;;;;;;;;4915652;29;20028;-75
2022/04/01 14:55:32;;;;;;;20.50;3.83;;;;;;;;;;4915211;29;20076;-73
2022/04/01 14:57:57;;;;;;;17.33;3.72;;;;;;;;;;4915274;29;20035;-75
2022/04/01 15:00:23;;;;;;;13.70;3.85;;;;;;;;;;4914997;29;20040;-77
2022/04/01 15:02:49;;;;;;;18.35;4.00;;;;;;;;;;4917753;29;20040;-73